Time;durP1;ratioP1;P1;durP2;ratioP2;P2;SDS_P1;SDS_P2;PMS_P1;PMS_P2;Temp;Humidity;BMP_temperature;BMP_pressure;BME280_temperature;BME280_humidity;BME280_pressure;Samples;Min_cycle;Max_cycle;Signal;HPM_P1;HPM_P2
2023/10/19 00:12:32;;;;;;;9.20;6.45;;;;;;;21.05;52.53;99848.28;39947882;29;20190;-71
2023/10/19 00:32:34;;;;;;;8.60;6.47;;;;;;;21.13;53.27;99836.25;39949541;29;20517;-70
2023/10/19 00:52:43;;;;;;;8.52;6.53;;;;;;;20.90;53.05;99786.44;39946541;29;20057;-72
2023/10/19 01:12:44;;;;;;;7.95;6.43;;;;;;;21.04;53.08;99785.22;39942048;29;20041;-69
2023/10/19 01:32:45;;;;;;;7.45;6.25;;;;;;;21.03;53.37;99763.34;39942745;29;20050;-71
2023/10/19 01:52:45;;;;;;;6.97;6.15;;;;;;;21.00;53.28;99739.91;39938636;29;20122;-69
2023/10/19 02:12:46;;;;;;;10.48;6.68;;;;;;;20.99;53.25;99724.28;39940766;29;20053;-71
2023/10/19 02:32:47;;;;;;;7.80;6.15;;;;;;;20.96;52.67;99704.31;39945323;29;20114;-69
2023/10/19 02:52:49;;;;;;;8.18;7.03;;;;;;;20.84;53.36;99666.75;39963495;29;20447;-70
2023/10/19 03:12:50;;;;;;;8.05;6.40;;;;;;;20.67;53.32;99612.94;39967850;29;20043;-69
2023/10/19 03:32:51;;;;;;;8.20;7.05;;;;;;;20.74;53.45;99592.22;39964594;29;20057;-69
2023/10/19 03:52:51;;;;;;;9.23;7.28;;;;;;;20.86;53.68;99592.91;39951061;29;20073;-70
2023/10/19 04:12:59;;;;;;;8.82;7.03;;;;;;;20.94;52.75;99585.19;39939684;29;20050;-75
2023/10/19 04:33:01;;;;;;;15.55;9.60;;;;;;;21.35;52.81;99537.66;39932091;29;20064;-69
2023/10/19 04:53:02;;;;;;;19.85;10.82;;;;;;;20.98;50.91;99528.66;39919317;29;20046;-83
2023/10/19 05:13:03;;;;;;;19.35;10.35;;;;;;;21.36;52.80;99512.97;40050955;29;20129;-85
2023/10/19 05:33:10;;;;;;;18.88;10.75;;;;;;;21.26;51.19;99500.69;40028427;29;20034;-76
2023/10/19 05:53:10;;;;;;;16.00;10.90;;;;;;;21.39;50.75;99515.34;40044125;29;20038;-83
2023/10/19 06:13:11;;;;;;;14.48;10.02;;;;;;;21.04;51.46;99462.31;39985562;29;20931;-83
2023/10/19 06:33:11;;;;;;;19.38;11.15;;;;;;;21.13;51.67;99459.81;39999226;29;20054;-83
2023/10/19 06:53:12;;;;;;;14.32;10.55;;;;;;;21.34;51.71;99492.06;39999399;29;20054;-81
2023/10/19 07:13:12;;;;;;;15.75;10.10;;;;;;;21.23;51.60;99450.09;39978440;29;20077;-82
2023/10/19 07:33:18;;;;;;;15.23;9.32;;;;;;;21.19;52.14;99440.81;39979556;29;20058;-84
2023/10/19 07:53:18;;;;;;;16.35;9.10;;;;;;;21.28;52.45;99427.63;39985989;29;20049;-88
2023/10/19 08:13:19;;;;;;;17.23;9.38;;;;;;;21.27;52.23;99398.81;39959590;29;20063;-83
2023/10/19 08:33:19;;;;;;;11.50;8.45;;;;;;;21.32;52.01;99383.41;39952607;29;20049;-83
2023/10/19 08:53:21;;;;;;;13.35;9.43;;;;;;;21.21;52.08;99358.06;39957067;29;20050;-82
2023/10/19 09:13:23;;;;;;;12.93;8.57;;;;;;;21.25;51.78;99334.94;39984871;29;20519;-83
2023/10/19 09:33:24;;;;;;;10.95;8.23;;;;;;;21.02;51.51;99282.66;39981785;29;20099;-88
2023/10/19 09:53:31;;;;;;;10.65;7.95;;;;;;;21.37;51.66;99307.47;40020054;29;20049;-84
2023/10/19 10:13:38;;;;;;;11.30;8.10;;;;;;;21.40;51.69;99270.28;40012319;29;20478;-83
2023/10/19 10:33:51;;;;;;;10.15;7.57;;;;;;;21.48;51.58;99237.94;40000313;29;20054;-82
2023/10/19 10:53:54;;;;;;;21.88;12.70;;;;;;;21.52;52.33;99212.13;40003593;29;20055;-86
2023/10/19 11:14:08;;;;;;;18.75;14.27;;;;;;;21.63;51.93;99158.41;40032930;29;20045;-83
2023/10/19 11:34:10;;;;;;;20.52;12.57;;;;;;;21.78;51.73;99117.38;40093215;29;20040;-84
2023/10/19 11:54:12;;;;;;;15.35;11.77;;;;;;;21.62;51.98;99091.75;40043035;29;20057;-76
2023/10/19 12:14:14;;;;;;;14.95;10.55;;;;;;;21.91;51.25;99078.28;40013620;29;20053;-76
2023/10/19 12:34:16;;;;;;;15.18;10.50;;;;;;;21.91;50.92;99035.28;39997864;29;20094;-77
2023/10/19 12:54:17;;;;;;;13.32;9.38;;;;;;;21.63;51.96;99003.84;40024307;29;20049;-86
2023/10/19 13:14:21;;;;;;;20.42;13.07;;;;;;;21.52;50.04;99006.69;39976075;29;20058;-81
2023/10/19 13:34:23;;;;;;;23.02;14.13;;;;;;;21.61;49.58;98987.38;39979783;29;20083;-81
2023/10/19 13:54:25;;;;;;;20.92;14.85;;;;;;;21.46;51.00;98966.00;39988307;29;20436;-84
2023/10/19 14:14:25;;;;;;;21.52;14.80;;;;;;;21.59;51.66;98970.88;39992474;29;20165;-73
2023/10/19 14:34:29;;;;;;;20.75;14.40;;;;;;;21.65;52.02;98943.09;39954871;29;20182;-82
2023/10/19 14:54:29;;;;;;;22.27;16.13;;;;;;;21.96;52.13;98943.41;39973162;29;20046;-76
2023/10/19 15:14:30;;;;;;;32.88;20.05;;;;;;;21.86;55.18;98919.81;39952937;29;20046;-74
2023/10/19 15:34:33;;;;;;;31.08;19.73;;;;;;;21.88;55.52;98886.19;39951799;29;20066;-67
2023/10/19 15:54:36;;;;;;;34.25;20.40;;;;;;;22.07;55.91;98866.66;39939147;29;20054;-69
2023/10/19 16:14:38;;;;;;;31.77;21.15;;;;;;;22.13;57.61;98885.44;39928606;29;20057;-71
2023/10/19 16:34:39;;;;;;;43.72;25.65;;;;;;;22.34;59.08;98872.63;39930870;29;20129;-70
2023/10/19 16:54:40;;;;;;;36.00;24.45;;;;;;;22.22;59.62;98858.94;39940742;29;20042;-71
2023/10/19 17:14:41;;;;;;;35.60;24.27;;;;;;;22.02;59.29;98818.03;39933699;29;20038;-71
2023/10/19 17:34:44;;;;;;;38.38;24.92;;;;;;;22.04;59.19;98818.72;39933479;29;20053;-71
2023/10/19 17:54:47;;;;;;;41.85;24.25;;;;;;;22.27;59.10;98797.00;39903925;29;20459;-70
2023/10/19 18:14:51;;;;;;;49.83;29.25;;;;;;;22.52;61.25;98771.44;39916838;29;20862;-70
2023/10/19 18:34:52;;;;;;;60.05;28.08;;;;;;;22.48;61.00;98775.41;39928040;29;20050;-76
2023/10/19 18:54:53;;;;;;;40.13;25.15;;;;;;;22.30;59.94;98742.13;39956228;29;20061;-74
2023/10/19 19:14:59;;;;;;;32.55;21.42;;;;;;;20.69;50.86;98721.09;39932664;29;20058;-69
2023/10/19 19:34:59;;;;;;;37.55;23.17;;;;;;;21.79;56.79;98721.19;39938042;29;20050;-72
2023/10/19 19:55:00;;;;;;;35.92;22.98;;;;;;;21.86;58.40;98724.81;39953622;29;20507;-72
2023/10/19 20:15:01;;;;;;;37.58;23.75;;;;;;;21.79;58.63;98718.56;39950884;29;20039;-69
2023/10/19 20:35:01;;;;;;;36.20;22.98;;;;;;;21.82;59.11;98709.50;39958545;29;20584;-69
2023/10/19 20:55:02;;;;;;;33.08;21.27;;;;;;;21.78;59.22;98702.91;39951224;29;20137;-69
2023/10/19 21:15:03;;;;;;;33.72;21.23;;;;;;;21.68;58.96;98648.56;39959220;29;20059;-71
2023/10/19 21:35:04;;;;;;;32.55;20.88;;;;;;;21.59;59.03;98631.94;39952170;29;20049;-70
2023/10/19 21:55:04;;;;;;;29.38;19.70;;;;;;;21.72;59.13;98634.06;39905182;29;20046;-69
2023/10/19 22:15:06;;;;;;;25.48;17.65;;;;;;;21.64;58.86;98617.44;39941330;29;20046;-68
2023/10/19 22:35:09;;;;;;;26.88;17.23;;;;;;;21.50;59.06;98585.50;39946149;29;20111;-67
2023/10/19 22:55:12;;;;;;;24.48;16.45;;;;;;;21.55;58.90;98554.22;39944131;29;20042;-68
2023/10/19 23:15:16;;;;;;;25.48;16.02;;;;;;;21.50;58.71;98569.69;39961025;29;20129;-69
2023/10/19 23:35:16;;;;;;;22.65;15.80;;;;;;;21.50;58.69;98555.72;39935563;29;20396;-69
2023/10/19 23:55:17;;;;;;;20.75;15.00;;;;;;;21.43;59.18;98543.22;39950572;29;20074;-69
